Tropical I — CRLU8 — position and weather

sailwx.info

Track history (hours):
 
Tides and Currents Weather Stations Pressure Air Temp Water Temp Dewpoint Dewpoint Depression Visibility Wind Speed Wind Dir Waves Ship Positions

Tropical I

Last reported at 2015-May-17 14:30 UTC. Time now 2015-May-23 04:19 UTC.
Position N 38°41' W 009°12'.

Length 11 m.

Type: Pleasure craft. MMSI: 263818940.

Date/timePositionNaut miles runAvg speedWind from/ knotsBaromVisibWave heightAir tempDewpointWater temp
2015-May-17 14:30N 38°41' W 009°12'4 2.1
2015-May-17 12:33N 38°42' W 009°07'4 1.9
2015-May-17 10:27N 38°41' W 009°12'0 0.2
2015-May-17 09:29N 38°42' W 009°12'  
2015-May-10 13:33N 38°41' W 009°12'1 1.0
2015-May-10 12:33N 38°42' W 009°11'3 3.0
2015-May-10 11:34N 38°42' W 009°15'3 2.4
2015-May-10 10:32N 38°42' W 009°12'0 0.3
2015-May-10 09:32N 38°42' W 009°12'  
Track history (hours):
 
Tides and Currents Weather Stations Pressure Air Temp Water Temp Dewpoint Dewpoint Depression Visibility Wind Speed Wind Dir Waves Ship Positions

Tropical I

Last reported at 2015-May-17 14:30 UTC. Time now 2015-May-23 04:19 UTC.
Position N 38°41' W 009°12'.

Length 11 m.

Type: Pleasure craft. MMSI: 263818940.

Date/timePositionNaut miles runAvg speedWind from/ knotsBaromVisibWave heightAir tempDewpointWater temp
2015-May-17 14:30N 38°41' W 009°12'4 2.1
2015-May-17 12:33N 38°42' W 009°07'4 1.9
2015-May-17 10:27N 38°41' W 009°12'0 0.2
2015-May-17 09:29N 38°42' W 009°12'  
2015-May-10 13:33N 38°41' W 009°12'1 1.0
2015-May-10 12:33N 38°42' W 009°11'3 3.0
2015-May-10 11:34N 38°42' W 009°15'3 2.4
2015-May-10 10:32N 38°42' W 009°12'0 0.3
2015-May-10 09:32N 38°42' W 009°12'  

Dump ship's entire track history